sensor_id;sensor_type;location;lat;lon;timestamp;pressure;altitude;pressure_sealevel;temperature;humidity
49979;BME280;35869;50.990;6.962;2023-04-04T00:01:28;102606.97;;;2.86;78.12
49979;BME280;35869;50.990;6.962;2023-04-04T00:06:28;102609.44;;;2.80;78.86
49979;BME280;35869;50.990;6.962;2023-04-04T00:11:28;102606.75;;;2.74;79.31
49979;BME280;35869;50.990;6.962;2023-04-04T00:16:29;102613.59;;;2.73;79.08
49979;BME280;35869;50.990;6.962;2023-04-04T00:21:29;102610.13;;;2.71;79.80
49979;BME280;35869;50.990;6.962;2023-04-04T00:26:29;102612.50;;;2.60;80.28
49979;BME280;35869;50.990;6.962;2023-04-04T00:31:29;102610.66;;;2.53;80.42
49979;BME280;35869;50.990;6.962;2023-04-04T00:36:29;102607.13;;;2.47;80.79
49979;BME280;35869;50.990;6.962;2023-04-04T00:41:30;102599.28;;;2.40;80.86
49979;BME280;35869;50.990;6.962;2023-04-04T00:46:30;102612.81;;;2.33;81.11
49979;BME280;35869;50.990;6.962;2023-04-04T00:51:31;102616.31;;;2.37;81.06
49979;BME280;35869;50.990;6.962;2023-04-04T00:56:34;102613.63;;;2.31;80.85
49979;BME280;35869;50.990;6.962;2023-04-04T01:01:36;102615.22;;;2.26;81.47
49979;BME280;35869;50.990;6.962;2023-04-04T01:06:36;102618.56;;;2.22;81.86
49979;BME280;35869;50.990;6.962;2023-04-04T01:11:37;102616.78;;;2.18;80.66
49979;BME280;35869;50.990;6.962;2023-04-04T01:16:38;102614.03;;;2.10;80.61
49979;BME280;35869;50.990;6.962;2023-04-04T01:21:39;102610.59;;;2.08;81.13
49979;BME280;35869;50.990;6.962;2023-04-04T01:26:39;102608.75;;;2.02;80.83
49979;BME280;35869;50.990;6.962;2023-04-04T01:31:42;102611.31;;;2.02;80.58
49979;BME280;35869;50.990;6.962;2023-04-04T01:36:46;102609.59;;;2.01;81.39
49979;BME280;35869;50.990;6.962;2023-04-04T01:41:49;102608.53;;;1.93;81.64
49979;BME280;35869;50.990;6.962;2023-04-04T01:46:53;102600.06;;;1.94;80.96
49979;BME280;35869;50.990;6.962;2023-04-04T01:51:54;102598.03;;;1.81;81.54
49979;BME280;35869;50.990;6.962;2023-04-04T01:56:54;102600.78;;;1.89;80.60
49979;BME280;35869;50.990;6.962;2023-04-04T02:01:54;102595.47;;;1.81;81.27
49979;BME280;35869;50.990;6.962;2023-04-04T02:06:54;102591.06;;;1.75;81.61
49979;BME280;35869;50.990;6.962;2023-04-04T02:11:54;102596.91;;;1.68;81.59
49979;BME280;35869;50.990;6.962;2023-04-04T02:16:55;102587.47;;;1.67;82.04
49979;BME280;35869;50.990;6.962;2023-04-04T02:21:55;102595.91;;;1.62;80.44
49979;BME280;35869;50.990;6.962;2023-04-04T02:26:55;102594.03;;;1.54;81.30
49979;BME280;35869;50.990;6.962;2023-04-04T02:31:55;102598.22;;;1.52;80.99
49979;BME280;35869;50.990;6.962;2023-04-04T02:36:55;102592.09;;;1.46;81.51
49979;BME280;35869;50.990;6.962;2023-04-04T02:41:56;102586.81;;;1.38;81.82
49979;BME280;35869;50.990;6.962;2023-04-04T02:46:56;102584.41;;;1.46;81.82
49979;BME280;35869;50.990;6.962;2023-04-04T02:51:56;102569.53;;;1.29;81.72
49979;BME280;35869;50.990;6.962;2023-04-04T02:56:56;102571.41;;;1.37;81.05
49979;BME280;35869;50.990;6.962;2023-04-04T03:01:56;102561.06;;;1.32;81.05
49979;BME280;35869;50.990;6.962;2023-04-04T03:06:57;102571.22;;;1.29;81.81
49979;BME280;35869;50.990;6.962;2023-04-04T03:11:57;102577.00;;;1.20;82.40
49979;BME280;35869;50.990;6.962;2023-04-04T03:16:57;102573.53;;;1.18;81.77
49979;BME280;35869;50.990;6.962;2023-04-04T03:21:57;102581.78;;;1.06;82.53
49979;BME280;35869;50.990;6.962;2023-04-04T03:26:59;102573.34;;;1.11;82.27
49979;BME280;35869;50.990;6.962;2023-04-04T03:31:59;102579.25;;;1.08;82.05
49979;BME280;35869;50.990;6.962;2023-04-04T03:36:59;102575.59;;;0.98;82.41
49979;BME280;35869;50.990;6.962;2023-04-04T03:41:59;102572.97;;;0.95;83.23
49979;BME280;35869;50.990;6.962;2023-04-04T03:46:59;102571.72;;;0.79;81.77
49979;BME280;35869;50.990;6.962;2023-04-04T03:52:00;102571.53;;;0.72;81.71
49979;BME280;35869;50.990;6.962;2023-04-04T03:57:00;102580.94;;;0.73;81.41
49979;BME280;35869;50.990;6.962;2023-04-04T04:02:00;102574.66;;;0.62;81.79
49979;BME280;35869;50.990;6.962;2023-04-04T04:07:00;102571.22;;;0.60;81.51
49979;BME280;35869;50.990;6.962;2023-04-04T04:12:01;102566.28;;;0.67;82.73
49979;BME280;35869;50.990;6.962;2023-04-04T04:17:01;102565.16;;;0.58;81.14
49979;BME280;35869;50.990;6.962;2023-04-04T04:22:01;102555.88;;;0.61;81.25
49979;BME280;35869;50.990;6.962;2023-04-04T04:27:02;102557.00;;;0.71;82.54
49979;BME280;35869;50.990;6.962;2023-04-04T04:32:02;102554.88;;;0.55;81.03
49979;BME280;35869;50.990;6.962;2023-04-04T04:37:03;102551.44;;;0.54;82.86
49979;BME280;35869;50.990;6.962;2023-04-04T04:42:03;102556.50;;;0.52;83.08
49979;BME280;35869;50.990;6.962;2023-04-04T04:47:03;102552.28;;;0.53;83.33
49979;BME280;35869;50.990;6.962;2023-04-04T04:52:04;102558.00;;;0.44;82.70
49979;BME280;35869;50.990;6.962;2023-04-04T04:57:04;102552.81;;;0.41;82.70
49979;BME280;35869;50.990;6.962;2023-04-04T05:02:04;102554.53;;;0.42;83.28
49979;BME280;35869;50.990;6.962;2023-04-04T05:07:04;102554.44;;;0.39;83.80
49979;BME280;35869;50.990;6.962;2023-04-04T05:12:04;102556.00;;;0.34;84.20
49979;BME280;35869;50.990;6.962;2023-04-04T05:17:05;102562.16;;;0.41;83.55
49979;BME280;35869;50.990;6.962;2023-04-04T05:22:05;102566.00;;;0.25;84.50
49979;BME280;35869;50.990;6.962;2023-04-04T05:27:06;102561.72;;;0.24;84.44
49979;BME280;35869;50.990;6.962;2023-04-04T05:32:06;102567.72;;;0.26;84.73
49979;BME280;35869;50.990;6.962;2023-04-04T05:37:06;102568.28;;;0.16;84.25
49979;BME280;35869;50.990;6.962;2023-04-04T05:42:06;102572.69;;;0.20;85.03
49979;BME280;35869;50.990;6.962;2023-04-04T05:47:07;102570.66;;;0.10;83.52
49979;BME280;35869;50.990;6.962;2023-04-04T05:52:07;102585.25;;;0.12;84.25
49979;BME280;35869;50.990;6.962;2023-04-04T05:57:07;102582.72;;;0.14;84.61
49979;BME280;35869;50.990;6.962;2023-04-04T06:02:08;102588.41;;;0.04;85.12
49979;BME280;35869;50.990;6.962;2023-04-04T06:07:08;102594.22;;;-0.01;83.72
49979;BME280;35869;50.990;6.962;2023-04-04T06:12:08;102593.50;;;0.04;84.11
49979;BME280;35869;50.990;6.962;2023-04-04T06:17:08;102601.09;;;0.01;83.26
49979;BME280;35869;50.990;6.962;2023-04-04T06:22:08;102604.38;;;-0.04;81.69
49979;BME280;35869;50.990;6.962;2023-04-04T06:27:09;102606.03;;;-0.06;80.09
49979;BME280;35869;50.990;6.962;2023-04-04T06:32:09;102603.38;;;-0.09;79.98
49979;BME280;35869;50.990;6.962;2023-04-04T06:37:09;102606.84;;;-0.07;79.23
49979;BME280;35869;50.990;6.962;2023-04-04T06:42:09;102613.03;;;0.00;79.21
49979;BME280;35869;50.990;6.962;2023-04-04T06:47:09;102614.09;;;0.08;79.04
49979;BME280;35869;50.990;6.962;2023-04-04T06:52:10;102613.41;;;0.14;78.28
49979;BME280;35869;50.990;6.962;2023-04-04T06:57:10;102625.00;;;0.31;77.54
49979;BME280;35869;50.990;6.962;2023-04-04T07:02:10;102619.22;;;0.38;77.59
49979;BME280;35869;50.990;6.962;2023-04-04T07:07:11;102623.69;;;0.45;77.74
49979;BME280;35869;50.990;6.962;2023-04-04T07:12:11;102633.25;;;0.52;77.84
49979;BME280;35869;50.990;6.962;2023-04-04T07:17:11;102633.63;;;0.65;77.18
49979;BME280;35869;50.990;6.962;2023-04-04T07:22:11;102628.31;;;0.90;74.67
49979;BME280;35869;50.990;6.962;2023-04-04T07:27:11;102633.00;;;1.06;74.83
49979;BME280;35869;50.990;6.962;2023-04-04T07:32:12;102637.94;;;1.33;72.87
49979;BME280;35869;50.990;6.962;2023-04-04T07:37:12;102626.53;;;1.57;69.54
49979;BME280;35869;50.990;6.962;2023-04-04T07:42:12;102632.94;;;1.76;70.18
49979;BME280;35869;50.990;6.962;2023-04-04T07:47:12;102639.97;;;1.83;69.95
49979;BME280;35869;50.990;6.962;2023-04-04T07:52:12;102622.69;;;2.15;66.70
49979;BME280;35869;50.990;6.962;2023-04-04T07:57:13;102616.28;;;2.35;67.87
49979;BME280;35869;50.990;6.962;2023-04-04T08:02:13;102614.94;;;2.54;65.03
49979;BME280;35869;50.990;6.962;2023-04-04T08:07:13;102612.63;;;2.66;66.78
49979;BME280;35869;50.990;6.962;2023-04-04T08:12:13;102616.34;;;2.84;67.04
49979;BME280;35869;50.990;6.962;2023-04-04T08:17:13;102618.09;;;2.85;69.92
49979;BME280;35869;50.990;6.962;2023-04-04T08:22:14;102604.88;;;3.12;67.29
49979;BME280;35869;50.990;6.962;2023-04-04T08:27:14;102591.38;;;3.27;61.84
49979;BME280;35869;50.990;6.962;2023-04-04T08:32:14;102596.78;;;3.42;60.29
49979;BME280;35869;50.990;6.962;2023-04-04T08:37:14;102592.00;;;3.66;61.46
49979;BME280;35869;50.990;6.962;2023-04-04T08:42:17;102590.38;;;3.73;64.49
49979;BME280;35869;50.990;6.962;2023-04-04T08:47:18;102587.03;;;3.80;66.38
49979;BME280;35869;50.990;6.962;2023-04-04T08:52:21;102588.19;;;4.02;61.50
49979;BME280;35869;50.990;6.962;2023-04-04T08:57:22;102575.53;;;4.20;62.35
49979;BME280;35869;50.990;6.962;2023-04-04T09:02:27;102582.78;;;4.52;58.34
49979;BME280;35869;50.990;6.962;2023-04-04T09:07:28;102580.09;;;4.40;61.86
49979;BME280;35869;50.990;6.962;2023-04-04T09:12:31;102581.19;;;4.66;58.99
49979;BME280;35869;50.990;6.962;2023-04-04T09:17:35;102590.81;;;4.82;57.29
49979;BME280;35869;50.990;6.962;2023-04-04T09:22:42;102596.22;;;5.10;56.31
49979;BME280;35869;50.990;6.962;2023-04-04T09:27:44;102586.78;;;5.12;55.68
49979;BME280;35869;50.990;6.962;2023-04-04T09:32:44;102585.13;;;5.20;61.98
49979;BME280;35869;50.990;6.962;2023-04-04T09:37:45;102576.56;;;5.24;57.44
49979;BME280;35869;50.990;6.962;2023-04-04T09:42:45;102577.56;;;5.43;54.12
49979;BME280;35869;50.990;6.962;2023-04-04T09:47:45;102575.16;;;5.72;55.17
49979;BME280;35869;50.990;6.962;2023-04-04T09:52:47;102574.22;;;5.58;64.92
49979;BME280;35869;50.990;6.962;2023-04-04T09:57:48;102565.88;;;6.03;60.38
49979;BME280;35869;50.990;6.962;2023-04-04T10:02:48;102558.25;;;6.35;59.05
49979;BME280;35869;50.990;6.962;2023-04-04T10:07:50;102554.00;;;6.57;63.42
49979;BME280;35869;50.990;6.962;2023-04-04T10:12:51;102549.69;;;6.79;62.24
49979;BME280;35869;50.990;6.962;2023-04-04T10:17:52;102547.97;;;7.03;63.14
49979;BME280;35869;50.990;6.962;2023-04-04T10:22:52;102536.72;;;7.48;63.81
49979;BME280;35869;50.990;6.962;2023-04-04T10:27:53;102531.50;;;7.71;57.96
49979;BME280;35869;50.990;6.962;2023-04-04T10:33:00;102527.03;;;8.07;60.35
49979;BME280;35869;50.990;6.962;2023-04-04T10:38:02;102516.38;;;8.59;54.96
49979;BME280;35869;50.990;6.962;2023-04-04T10:43:05;102509.06;;;9.10;55.82
49979;BME280;35869;50.990;6.962;2023-04-04T10:48:06;102495.31;;;8.97;54.00
49979;BME280;35869;50.990;6.962;2023-04-04T10:53:07;102486.22;;;9.42;52.77
49979;BME280;35869;50.990;6.962;2023-04-04T10:58:07;102483.75;;;9.30;63.63
49979;BME280;35869;50.990;6.962;2023-04-04T11:03:07;102480.13;;;9.46;55.59
49979;BME280;35869;50.990;6.962;2023-04-04T11:08:09;102476.72;;;9.41;63.48
49979;BME280;35869;50.990;6.962;2023-04-04T11:13:13;102467.94;;;10.18;56.80
49979;BME280;35869;50.990;6.962;2023-04-04T11:18:14;102461.13;;;10.10;61.10
49979;BME280;35869;50.990;6.962;2023-04-04T11:23:18;102456.78;;;10.66;54.93
49979;BME280;35869;50.990;6.962;2023-04-04T11:33:52;102443.88;;;10.62;57.13
49979;BME280;35869;50.990;6.962;2023-04-04T11:38:56;102439.91;;;10.90;55.59
49979;BME280;35869;50.990;6.962;2023-04-04T11:44:07;102441.88;;;10.22;58.97
49979;BME280;35869;50.990;6.962;2023-04-04T11:49:08;102435.53;;;10.92;50.49
49979;BME280;35869;50.990;6.962;2023-04-04T11:54:15;102428.19;;;11.14;57.73
49979;BME280;35869;50.990;6.962;2023-04-04T11:59:18;102421.78;;;10.86;58.85
49979;BME280;35869;50.990;6.962;2023-04-04T12:04:19;102416.56;;;11.32;52.97
49979;BME280;35869;50.990;6.962;2023-04-04T12:09:21;102401.09;;;11.65;47.49
49979;BME280;35869;50.990;6.962;2023-04-04T12:14:23;102403.94;;;11.54;55.87
49979;BME280;35869;50.990;6.962;2023-04-04T12:19:23;102393.28;;;12.05;50.52
49979;BME280;35869;50.990;6.962;2023-04-04T12:24:24;102380.69;;;12.22;49.25
49979;BME280;35869;50.990;6.962;2023-04-04T12:29:25;102376.81;;;12.39;51.24
49979;BME280;35869;50.990;6.962;2023-04-04T12:34:29;102383.78;;;12.38;48.52
49979;BME280;35869;50.990;6.962;2023-04-04T12:39:30;102367.25;;;12.39;54.91
49979;BME280;35869;50.990;6.962;2023-04-04T12:44:33;102360.16;;;12.77;43.76
49979;BME280;35869;50.990;6.962;2023-04-04T12:54:38;102344.38;;;12.81;46.91
49979;BME280;35869;50.990;6.962;2023-04-04T12:59:44;102319.91;;;12.86;52.50
49979;BME280;35869;50.990;6.962;2023-04-04T13:04:45;102322.06;;;13.02;51.26
49979;BME280;35869;50.990;6.962;2023-04-04T13:09:57;102315.47;;;13.48;47.19
49979;BME280;35869;50.990;6.962;2023-04-04T13:15:02;102306.97;;;13.42;40.75
49979;BME280;35869;50.990;6.962;2023-04-04T13:20:03;102295.88;;;13.35;49.89
49979;BME280;35869;50.990;6.962;2023-04-04T13:25:04;102298.59;;;13.01;57.53
49979;BME280;35869;50.990;6.962;2023-04-04T13:30:06;102297.28;;;13.16;56.77
49979;BME280;35869;50.990;6.962;2023-04-04T13:35:07;102288.94;;;13.34;54.53
49979;BME280;35869;50.990;6.962;2023-04-04T13:40:08;102276.88;;;13.58;54.37
49979;BME280;35869;50.990;6.962;2023-04-04T13:45:09;102267.78;;;13.43;57.71
49979;BME280;35869;50.990;6.962;2023-04-04T13:50:09;102270.91;;;13.54;43.87
49979;BME280;35869;50.990;6.962;2023-04-04T13:55:09;102256.97;;;13.54;51.99
49979;BME280;35869;50.990;6.962;2023-04-04T14:00:09;102254.19;;;13.58;58.29
49979;BME280;35869;50.990;6.962;2023-04-04T14:05:10;102249.94;;;13.56;57.39
49979;BME280;35869;50.990;6.962;2023-04-04T14:10:10;102244.16;;;13.46;54.10
49979;BME280;35869;50.990;6.962;2023-04-04T14:15:10;102232.66;;;13.78;44.67
49979;BME280;35869;50.990;6.962;2023-04-04T14:20:11;102233.75;;;13.71;41.68
49979;BME280;35869;50.990;6.962;2023-04-04T14:25:11;102226.16;;;13.64;44.90
49979;BME280;35869;50.990;6.962;2023-04-04T14:30:11;102214.56;;;13.46;43.02
49979;BME280;35869;50.990;6.962;2023-04-04T14:35:12;102207.63;;;13.45;42.78
49979;BME280;35869;50.990;6.962;2023-04-04T14:40:12;102208.47;;;13.17;51.31
49979;BME280;35869;50.990;6.962;2023-04-04T14:45:13;102209.28;;;13.47;45.57
49979;BME280;35869;50.990;6.962;2023-04-04T14:50:13;102195.94;;;13.00;56.11
49979;BME280;35869;50.990;6.962;2023-04-04T14:55:14;102192.00;;;13.15;53.47
49979;BME280;35869;50.990;6.962;2023-04-04T15:00:14;102189.09;;;13.26;50.68
49979;BME280;35869;50.990;6.962;2023-04-04T15:05:15;102183.28;;;13.16;50.42
49979;BME280;35869;50.990;6.962;2023-04-04T15:10:15;102178.63;;;12.98;52.73
49979;BME280;35869;50.990;6.962;2023-04-04T15:15:15;102179.72;;;12.91;48.01
49979;BME280;35869;50.990;6.962;2023-04-04T15:20:16;102175.16;;;12.69;53.50
49979;BME280;35869;50.990;6.962;2023-04-04T15:25:16;102173.44;;;12.39;53.90
49979;BME280;35869;50.990;6.962;2023-04-04T15:30:16;102169.69;;;12.47;45.13
49979;BME280;35869;50.990;6.962;2023-04-04T15:35:18;102164.47;;;12.49;45.83
49979;BME280;35869;50.990;6.962;2023-04-04T15:40:19;102163.22;;;12.31;52.51
49979;BME280;35869;50.990;6.962;2023-04-04T15:45:19;102163.22;;;12.31;45.72
49979;BME280;35869;50.990;6.962;2023-04-04T15:50:19;102157.66;;;12.14;47.51
49979;BME280;35869;50.990;6.962;2023-04-04T15:55:19;102162.63;;;11.90;49.24
49979;BME280;35869;50.990;6.962;2023-04-04T16:00:20;102157.78;;;11.75;48.56
49979;BME280;35869;50.990;6.962;2023-04-04T16:05:20;102159.00;;;11.60;51.19
49979;BME280;35869;50.990;6.962;2023-04-04T16:10:20;102151.00;;;11.34;52.24
49979;BME280;35869;50.990;6.962;2023-04-04T16:15:20;102156.44;;;11.25;48.88
49979;BME280;35869;50.990;6.962;2023-04-04T16:20:21;102162.97;;;11.05;46.87
49979;BME280;35869;50.990;6.962;2023-04-04T16:25:21;102160.94;;;10.81;47.94
49979;BME280;35869;50.990;6.962;2023-04-04T16:30:21;102152.91;;;10.51;47.84
49979;BME280;35869;50.990;6.962;2023-04-04T16:35:22;102154.09;;;10.35;46.46
49979;BME280;35869;50.990;6.962;2023-04-04T16:40:22;102154.91;;;10.37;49.49
49979;BME280;35869;50.990;6.962;2023-04-04T16:45:22;102149.84;;;10.31;47.03
49979;BME280;35869;50.990;6.962;2023-04-04T16:50:22;102152.72;;;10.15;49.92
49979;BME280;35869;50.990;6.962;2023-04-04T16:55:22;102147.16;;;9.89;50.82
49979;BME280;35869;50.990;6.962;2023-04-04T17:00:23;102153.78;;;9.57;53.95
49979;BME280;35869;50.990;6.962;2023-04-04T17:05:23;102143.47;;;9.53;51.98
49979;BME280;35869;50.990;6.962;2023-04-04T17:10:23;102156.00;;;9.28;54.22
49979;BME280;35869;50.990;6.962;2023-04-04T17:15:23;102138.75;;;9.25;53.81
49979;BME280;35869;50.990;6.962;2023-04-04T17:20:24;102147.47;;;9.20;52.39
49979;BME280;35869;50.990;6.962;2023-04-04T17:25:24;102147.66;;;9.07;55.42
49979;BME280;35869;50.990;6.962;2023-04-04T17:30:24;102148.84;;;8.87;56.43
49979;BME280;35869;50.990;6.962;2023-04-04T17:35:24;102142.03;;;8.81;53.90
49979;BME280;35869;50.990;6.962;2023-04-04T17:40:24;102154.34;;;8.64;53.62
49979;BME280;35869;50.990;6.962;2023-04-04T17:45:25;102144.94;;;8.55;56.93
49979;BME280;35869;50.990;6.962;2023-04-04T17:50:25;102144.97;;;8.53;53.37
49979;BME280;35869;50.990;6.962;2023-04-04T17:55:26;102149.56;;;8.30;51.75
49979;BME280;35869;50.990;6.962;2023-04-04T18:00:26;102141.84;;;8.27;52.65
49979;BME280;35869;50.990;6.962;2023-04-04T18:05:27;102142.84;;;8.14;55.35
49979;BME280;35869;50.990;6.962;2023-04-04T18:10:27;102142.06;;;8.06;53.65
49979;BME280;35869;50.990;6.962;2023-04-04T18:15:27;102136.13;;;7.99;54.52
49979;BME280;35869;50.990;6.962;2023-04-04T18:20:28;102140.53;;;7.88;56.80
49979;BME280;35869;50.990;6.962;2023-04-04T18:25:29;102145.88;;;7.74;53.85
49979;BME280;35869;50.990;6.962;2023-04-04T18:30:29;102151.94;;;7.70;53.45
49979;BME280;35869;50.990;6.962;2023-04-04T18:35:29;102145.19;;;7.54;51.01
49979;BME280;35869;50.990;6.962;2023-04-04T18:40:29;102141.88;;;7.36;51.21
49979;BME280;35869;50.990;6.962;2023-04-04T18:45:30;102147.06;;;7.32;49.60
49979;BME280;35869;50.990;6.962;2023-04-04T18:50:30;102144.56;;;7.21;50.78
49979;BME280;35869;50.990;6.962;2023-04-04T18:55:31;102142.91;;;7.17;50.20
49979;BME280;35869;50.990;6.962;2023-04-04T19:00:31;102159.31;;;7.08;54.75
49979;BME280;35869;50.990;6.962;2023-04-04T19:05:32;102167.97;;;7.01;56.00
49979;BME280;35869;50.990;6.962;2023-04-04T19:10:35;102163.72;;;6.95;58.24
49979;BME280;35869;50.990;6.962;2023-04-04T19:15:35;102162.91;;;6.87;60.94
49979;BME280;35869;50.990;6.962;2023-04-04T19:20:35;102161.19;;;6.86;61.30
49979;BME280;35869;50.990;6.962;2023-04-04T19:25:35;102181.00;;;6.87;62.07
49979;BME280;35869;50.990;6.962;2023-04-04T19:35:53;102188.81;;;6.72;62.84
49979;BME280;35869;50.990;6.962;2023-04-04T19:41:01;102182.03;;;6.51;59.75
49979;BME280;35869;50.990;6.962;2023-04-04T19:46:12;102181.19;;;6.48;62.43
49979;BME280;35869;50.990;6.962;2023-04-04T19:56:17;102185.53;;;6.26;62.74
49979;BME280;35869;50.990;6.962;2023-04-04T20:01:23;102177.81;;;6.21;60.30
49979;BME280;35869;50.990;6.962;2023-04-04T20:06:28;102189.88;;;6.19;62.19
49979;BME280;35869;50.990;6.962;2023-04-04T20:11:31;102193.34;;;6.10;60.98
49979;BME280;35869;50.990;6.962;2023-04-04T20:16:31;102192.47;;;6.13;62.11
49979;BME280;35869;50.990;6.962;2023-04-04T20:21:32;102195.06;;;6.05;60.27
49979;BME280;35869;50.990;6.962;2023-04-04T20:26:54;102192.50;;;5.98;61.40
49979;BME280;35869;50.990;6.962;2023-04-04T20:31:58;102195.94;;;6.01;59.82
49979;BME280;35869;50.990;6.962;2023-04-04T20:37:05;102192.50;;;5.96;59.68
49979;BME280;35869;50.990;6.962;2023-04-04T20:47:40;102199.38;;;5.88;61.11
49979;BME280;35869;50.990;6.962;2023-04-04T20:57:44;102186.47;;;5.76;63.55
49979;BME280;35869;50.990;6.962;2023-04-04T21:02:44;102186.47;;;5.74;65.59
49979;BME280;35869;50.990;6.962;2023-04-04T21:07:44;102189.91;;;5.69;64.04
49979;BME280;35869;50.990;6.962;2023-04-04T21:12:45;102183.91;;;5.64;67.16
49979;BME280;35869;50.990;6.962;2023-04-04T21:17:45;102183.03;;;5.57;68.35
49979;BME280;35869;50.990;6.962;2023-04-04T21:22:47;102174.44;;;5.56;66.75
49979;BME280;35869;50.990;6.962;2023-04-04T21:27:52;102171.00;;;5.56;70.21
49979;BME280;35869;50.990;6.962;2023-04-04T21:32:54;102164.16;;;5.52;70.97
49979;BME280;35869;50.990;6.962;2023-04-04T21:37:54;102159.00;;;5.46;70.82
49979;BME280;35869;50.990;6.962;2023-04-04T21:42:54;102166.72;;;5.40;72.05
49979;BME280;35869;50.990;6.962;2023-04-04T21:47:54;102165.00;;;5.35;72.17
49979;BME280;35869;50.990;6.962;2023-04-04T21:52:55;102149.53;;;5.31;71.01
49979;BME280;35869;50.990;6.962;2023-04-04T21:57:55;102142.66;;;5.25;72.43
49979;BME280;35869;50.990;6.962;2023-04-04T22:02:55;102149.50;;;5.20;71.38
49979;BME280;35869;50.990;6.962;2023-04-04T22:07:56;102146.94;;;5.11;71.95
49979;BME280;35869;50.990;6.962;2023-04-04T22:12:56;102145.22;;;5.07;73.07
49979;BME280;35869;50.990;6.962;2023-04-04T22:17:57;102155.50;;;5.01;72.18
49979;BME280;35869;50.990;6.962;2023-04-04T22:23:00;102151.19;;;4.97;72.81
49979;BME280;35869;50.990;6.962;2023-04-04T22:28:04;102142.56;;;4.79;69.79
49979;BME280;35869;50.990;6.962;2023-04-04T22:33:04;102133.97;;;4.79;71.27
49979;BME280;35869;50.990;6.962;2023-04-04T22:38:04;102121.97;;;4.75;72.60
49979;BME280;35869;50.990;6.962;2023-04-04T22:43:04;102128.81;;;4.74;72.69
49979;BME280;35869;50.990;6.962;2023-04-04T22:48:05;102133.13;;;4.72;72.50
49979;BME280;35869;50.990;6.962;2023-04-04T22:53:05;102143.38;;;4.60;73.23
49979;BME280;35869;50.990;6.962;2023-04-04T22:58:06;102126.19;;;4.53;73.13
49979;BME280;35869;50.990;6.962;2023-04-04T23:03:06;102126.19;;;4.53;72.99
49979;BME280;35869;50.990;6.962;2023-04-04T23:08:06;102130.47;;;4.46;73.63
49979;BME280;35869;50.990;6.962;2023-04-04T23:13:06;102120.13;;;4.34;74.20
49979;BME280;35869;50.990;6.962;2023-04-04T23:18:07;102124.38;;;4.24;73.97
49979;BME280;35869;50.990;6.962;2023-04-04T23:23:07;102115.81;;;4.28;73.73
49979;BME280;35869;50.990;6.962;2023-04-04T23:28:07;102115.78;;;4.22;74.44
49979;BME280;35869;50.990;6.962;2023-04-04T23:33:07;102110.53;;;4.04;76.13
49979;BME280;35869;50.990;6.962;2023-04-04T23:38:07;102117.44;;;4.08;74.40
49979;BME280;35869;50.990;6.962;2023-04-04T23:43:08;102108.84;;;4.09;74.55
49979;BME280;35869;50.990;6.962;2023-04-04T23:48:08;102100.13;;;3.80;71.03
49979;BME280;35869;50.990;6.962;2023-04-04T23:53:09;102103.59;;;3.86;73.93
49979;BME280;35869;50.990;6.962;2023-04-04T23:58:10;102095.88;;;3.83;74.97
